createdAt,value
2017-12-13T00:00:04.887Z,18.13
2017-12-13T00:02:32.433Z,24.73
2017-12-13T00:05:00.764Z,25.17
2017-12-13T00:07:28.301Z,21.63
2017-12-13T00:09:55.858Z,25.60
2017-12-13T00:12:23.416Z,25.47
2017-12-13T00:14:50.996Z,26.70
2017-12-13T00:17:18.536Z,19.20
2017-12-13T00:19:46.100Z,28.60
2017-12-13T00:22:13.644Z,23.70
2017-12-13T00:24:41.208Z,24.40
2017-12-13T00:27:09.503Z,19.97
2017-12-13T00:29:37.823Z,27.20
2017-12-13T00:32:05.356Z,23.07
2017-12-13T00:34:32.912Z,31.30
2017-12-13T00:37:00.466Z,26.03
2017-12-13T00:39:28.770Z,25.37
2017-12-13T00:41:57.085Z,25.57
2017-12-13T00:44:24.620Z,24.40
2017-12-13T00:46:52.179Z,28.77
2017-12-13T00:49:19.722Z,25.77
2017-12-13T00:51:47.283Z,21.43
2017-12-13T00:54:14.819Z,21.20
2017-12-13T00:56:42.376Z,20.77
2017-12-13T00:59:10.693Z,24.60
2017-12-13T01:01:38.252Z,30.43
2017-12-13T01:04:06.555Z,21.73
2017-12-13T01:06:34.879Z,20.67
2017-12-13T01:09:02.425Z,18.47
2017-12-13T01:11:29.996Z,17.67
2017-12-13T01:13:57.537Z,18.53
2017-12-13T01:16:25.080Z,17.27
2017-12-13T01:18:53.403Z,20.70
2017-12-13T01:21:20.953Z,19.33
2017-12-13T01:23:48.514Z,19.87
2017-12-13T01:26:16.051Z,23.13
2017-12-13T01:28:44.384Z,25.60
2017-12-13T01:31:12.692Z,22.07
2017-12-13T01:33:40.252Z,20.97
2017-12-13T01:36:07.788Z,28.13
2017-12-13T01:38:35.347Z,27.63
2017-12-13T01:41:02.893Z,29.83
2017-12-13T01:43:30.490Z,33.23
2017-12-13T01:45:58.023Z,25.53
2017-12-13T01:48:25.595Z,31.63
2017-12-13T01:50:53.131Z,26.90
2017-12-13T01:53:20.670Z,31.50
2017-12-13T01:55:48.252Z,29.10
2017-12-13T01:58:15.794Z,23.20
2017-12-13T02:00:43.502Z,28.60
2017-12-13T02:03:11.082Z,35.57
2017-12-13T02:05:38.636Z,31.83
2017-12-13T02:08:06.935Z,31.53
2017-12-13T02:10:35.259Z,42.93
2017-12-13T02:13:02.801Z,35.07
2017-12-13T02:15:30.357Z,28.10
2017-12-13T02:17:57.920Z,31.03
2017-12-13T02:20:25.481Z,30.10
2017-12-13T02:22:53.017Z,35.57
2017-12-13T02:27:53.380Z,22.20
2017-12-13T02:30:21.700Z,30.40
2017-12-13T02:32:49.237Z,24.60
2017-12-13T02:35:16.800Z,27.23
2017-12-13T02:37:44.332Z,27.03
2017-12-13T02:40:23.731Z,27.10
2017-12-13T02:42:51.272Z,25.30
2017-12-13T02:45:18.839Z,26.83
2017-12-13T02:47:46.377Z,28.27
2017-12-13T02:50:13.912Z,27.87
2017-12-13T02:52:41.473Z,24.87
2017-12-13T02:55:09.781Z,24.03
2017-12-13T02:57:38.112Z,23.07
2017-12-13T03:00:05.656Z,37.20
2017-12-13T03:02:33.980Z,19.67
2017-12-13T03:05:01.512Z,31.97
2017-12-13T03:07:29.133Z,28.03
2017-12-13T03:09:56.636Z,26.23
2017-12-13T03:12:24.192Z,26.40
2017-12-13T03:14:52.494Z,44.13
2017-12-13T03:17:20.831Z,21.80
2017-12-13T03:19:48.379Z,29.83
2017-12-13T03:22:16.782Z,21.97
2017-12-13T03:24:45.091Z,26.07
2017-12-13T03:27:13.397Z,35.13
2017-12-13T03:29:41.760Z,29.63
2017-12-13T03:32:09.298Z,21.97
2017-12-13T03:34:36.858Z,23.77
2017-12-13T03:37:05.162Z,26.90
2017-12-13T03:39:33.483Z,28.33
2017-12-13T03:42:01.015Z,25.90
2017-12-13T03:44:28.568Z,28.93
2017-12-13T03:46:56.103Z,23.83
2017-12-13T03:49:23.665Z,32.63
2017-12-13T03:51:51.207Z,29.87
2017-12-13T03:54:18.764Z,37.40
2017-12-13T03:56:47.065Z,28.33
2017-12-13T03:59:15.388Z,30.23
2017-12-13T04:01:42.928Z,29.00
2017-12-13T04:04:10.488Z,34.67
2017-12-13T04:06:38.024Z,33.67
2017-12-13T04:09:06.340Z,39.47
2017-12-13T04:11:33.875Z,32.47
2017-12-13T04:14:01.472Z,33.60
2017-12-13T04:16:29.013Z,38.27
2017-12-13T04:18:56.548Z,28.67
2017-12-13T04:21:24.878Z,37.80
2017-12-13T04:23:52.426Z,37.63
2017-12-13T04:26:19.979Z,38.23
2017-12-13T04:28:47.516Z,34.23
2017-12-13T04:31:15.852Z,36.13
2017-12-13T04:33:43.412Z,30.27
2017-12-13T04:36:10.983Z,37.17
2017-12-13T04:38:39.281Z,27.53
2017-12-13T04:41:07.609Z,30.60
2017-12-13T04:43:35.147Z,30.43
2017-12-13T04:46:02.705Z,28.13
2017-12-13T04:48:31.244Z,22.10
2017-12-13T04:50:58.803Z,22.70
2017-12-13T04:53:26.347Z,31.07
2017-12-13T04:55:53.906Z,24.03
2017-12-13T04:58:22.228Z,31.90
2017-12-13T05:00:49.768Z,27.30
2017-12-13T05:03:17.324Z,25.00
2017-12-13T05:05:44.865Z,29.13
2017-12-13T05:08:13.237Z,18.63
2017-12-13T05:10:40.792Z,25.30
2017-12-13T05:13:08.344Z,22.30
2017-12-13T05:15:35.912Z,29.80
2017-12-13T05:18:04.241Z,22.57
2017-12-13T05:20:31.792Z,28.27
2017-12-13T05:23:00.110Z,24.90
2017-12-13T05:25:28.413Z,29.40
2017-12-13T05:27:56.737Z,36.07
2017-12-13T05:30:24.280Z,31.73
2017-12-13T05:32:51.847Z,32.33
2017-12-13T05:35:19.383Z,35.50
2017-12-13T05:37:47.021Z,33.53
2017-12-13T05:40:15.373Z,37.40
2017-12-13T05:42:42.910Z,35.67
2017-12-13T05:45:10.468Z,28.10
2017-12-13T05:47:38.006Z,48.43
2017-12-13T05:50:06.343Z,33.10
2017-12-13T05:52:34.275Z,34.43
2017-12-13T05:55:01.871Z,28.60
2017-12-13T15:33:04.984Z,3.17
2017-12-13T15:35:32.545Z,3.87
2017-12-13T15:38:00.073Z,8.70
2017-12-13T15:40:27.623Z,2.93
2017-12-13T15:42:55.166Z,3.37
2017-12-13T15:45:23.493Z,4.17
2017-12-13T15:47:51.027Z,3.87
2017-12-13T15:50:18.566Z,7.50
2017-12-13T15:52:46.122Z,3.90
2017-12-13T15:55:14.415Z,4.70
2017-12-13T15:57:41.978Z,2.73
2017-12-13T16:00:09.505Z,3.30
2017-12-13T16:02:37.833Z,4.93
2017-12-13T16:05:05.389Z,2.97
2017-12-13T16:07:32.949Z,5.33
2017-12-13T16:10:01.269Z,4.07
2017-12-13T16:12:29.599Z,2.37
2017-12-13T16:14:57.124Z,5.70
2017-12-13T16:17:24.685Z,4.60
2017-12-13T16:19:52.213Z,1.87
2017-12-13T16:22:20.543Z,2.53
2017-12-13T16:24:48.081Z,3.63
2017-12-13T16:27:15.611Z,4.67
2017-12-13T16:29:43.166Z,1.73
2017-12-13T16:32:11.468Z,2.03
2017-12-13T16:34:39.792Z,1.60
2017-12-13T16:37:07.320Z,1.57
2017-12-13T16:39:34.871Z,3.50
2017-12-13T16:42:02.407Z,2.00
2017-12-13T16:44:29.955Z,2.07
2017-12-13T16:46:57.496Z,2.33
2017-12-13T16:49:25.813Z,5.33
2017-12-13T16:51:53.354Z,1.63
2017-12-13T16:54:20.900Z,4.37
2017-12-13T16:56:48.429Z,3.47
2017-12-13T16:59:16.002Z,2.10
2017-12-13T17:01:43.542Z,1.43
2017-12-13T17:04:11.077Z,1.70
2017-12-13T17:06:38.636Z,6.93
2017-12-13T17:09:06.174Z,2.10
2017-12-13T17:11:34.488Z,3.97
2017-12-13T17:14:02.021Z,3.60
2017-12-13T17:16:29.593Z,5.27
2017-12-13T17:18:57.123Z,1.70
2017-12-13T17:21:24.685Z,1.87
2017-12-13T17:23:52.232Z,6.70
2017-12-13T17:26:19.823Z,1.60
2017-12-13T17:28:47.365Z,3.00
2017-12-13T17:31:14.921Z,3.47
2017-12-13T17:33:42.464Z,2.70
2017-12-13T17:36:10.030Z,1.90
2017-12-13T17:38:37.575Z,3.10
2017-12-13T17:41:05.137Z,2.73
2017-12-13T17:43:32.768Z,6.10
2017-12-13T17:46:00.310Z,6.60
2017-12-13T17:48:27.870Z,3.83
2017-12-13T17:50:55.405Z,5.17
2017-12-13T17:53:23.720Z,5.37
2017-12-13T17:55:51.248Z,4.93
2017-12-13T17:58:18.887Z,6.50
2017-12-13T18:00:47.193Z,4.23
2017-12-13T18:03:14.760Z,10.73
2017-12-13T18:05:43.080Z,3.60
2017-12-13T18:08:10.644Z,3.77
2017-12-13T18:10:38.931Z,5.53
2017-12-13T18:13:06.483Z,4.83
2017-12-13T18:15:34.046Z,7.60
2017-12-13T18:18:01.576Z,4.63
2017-12-13T18:20:33.071Z,8.90
2017-12-13T18:23:01.444Z,7.63
2017-12-13T18:25:28.999Z,6.50
2017-12-13T18:27:56.533Z,7.63
2017-12-13T18:30:24.092Z,10.80
2017-12-13T18:32:51.749Z,12.80
2017-12-13T18:35:21.402Z,9.30
2017-12-13T18:37:49.084Z,7.10
2017-12-13T18:40:17.467Z,11.47
2017-12-13T18:42:44.992Z,9.03
2017-12-13T18:45:12.618Z,19.40
2017-12-13T18:47:41.003Z,13.97
2017-12-13T18:50:08.703Z,11.33
2017-12-13T18:52:37.171Z,11.30
2017-12-13T18:55:04.737Z,16.40
2017-12-13T18:57:32.292Z,20.30
2017-12-13T19:00:00.590Z,14.20
2017-12-13T19:02:28.904Z,17.13
2017-12-13T19:04:57.209Z,18.80
2017-12-13T19:07:25.535Z,18.63
2017-12-13T19:09:53.080Z,16.10
2017-12-13T19:12:21.400Z,12.30
2017-12-13T19:14:49.700Z,24.03
2017-12-13T19:17:17.255Z,15.87
2017-12-13T19:19:47.523Z,16.50
2017-12-13T19:22:15.853Z,20.37
2017-12-13T19:24:45.385Z,12.63
2017-12-13T19:27:13.703Z,17.03
2017-12-13T19:29:41.236Z,17.20
2017-12-13T19:32:09.560Z,16.73
2017-12-13T19:34:37.115Z,17.97
2017-12-13T19:37:04.660Z,24.20
2017-12-13T19:39:32.269Z,16.30
2017-12-13T19:41:59.816Z,14.47
2017-12-13T19:44:27.403Z,14.17
2017-12-13T19:46:54.946Z,19.80
2017-12-13T19:49:22.499Z,15.40
2017-12-13T19:51:50.032Z,16.50
2017-12-13T19:54:18.351Z,16.47
2017-12-13T19:56:45.888Z,17.93
2017-12-13T19:59:13.453Z,19.20
2017-12-13T20:01:40.985Z,13.03
2017-12-13T20:04:08.557Z,16.70
2017-12-13T20:06:36.870Z,20.40
2017-12-13T20:09:05.723Z,16.83
2017-12-13T20:11:33.319Z,22.53
2017-12-13T20:14:00.877Z,17.17
2017-12-13T20:16:28.476Z,19.93
2017-12-13T20:18:56.079Z,14.97
2017-12-13T20:21:23.770Z,16.43
2017-12-13T20:23:51.405Z,16.27
2017-12-13T20:26:19.740Z,13.80
2017-12-13T20:28:47.280Z,12.60
2017-12-13T20:31:15.623Z,14.90
2017-12-13T20:33:43.919Z,10.57
2017-12-13T20:36:11.475Z,13.03
2017-12-13T20:38:39.780Z,10.50
2017-12-13T20:41:07.343Z,11.20
2017-12-13T20:43:35.675Z,11.70
2017-12-13T20:46:03.262Z,10.37
2017-12-13T20:48:30.812Z,11.43
2017-12-13T20:50:58.381Z,10.90
2017-12-13T20:53:25.939Z,11.00
2017-12-13T20:55:53.471Z,11.50
2017-12-13T20:58:21.796Z,13.43
2017-12-13T21:00:49.345Z,11.00
2017-12-13T21:03:17.001Z,11.70
2017-12-13T21:05:44.537Z,9.13
2017-12-13T21:08:12.864Z,10.20
2017-12-13T21:10:40.503Z,8.13
2017-12-13T21:13:08.055Z,8.47
2017-12-13T21:15:35.665Z,10.57
2017-12-13T21:18:05.232Z,16.70
2017-12-13T21:20:32.960Z,11.60
2017-12-13T21:23:00.511Z,8.30
2017-12-13T21:25:28.644Z,8.53
2017-12-13T21:27:56.485Z,9.60
2017-12-13T21:30:25.189Z,15.93
2017-12-13T21:32:52.764Z,12.37
2017-12-13T21:35:20.340Z,10.70
2017-12-13T21:37:47.901Z,12.40
2017-12-13T21:40:15.564Z,10.83
2017-12-13T21:42:43.369Z,12.93
2017-12-13T21:45:10.949Z,10.30
2017-12-13T21:47:48.804Z,8.50
2017-12-13T21:50:17.097Z,13.10
2017-12-13T21:52:44.776Z,11.40
2017-12-13T21:55:12.524Z,13.13
2017-12-13T21:57:40.823Z,9.50
2017-12-13T22:00:09.193Z,9.37
2017-12-13T22:02:36.748Z,9.57
2017-12-13T22:05:09.797Z,9.93
2017-12-13T22:07:37.577Z,8.97
2017-12-13T22:10:06.460Z,12.87
2017-12-13T22:12:35.534Z,11.47
2017-12-13T22:15:05.199Z,11.73
2017-12-13T22:17:33.641Z,9.33
2017-12-13T22:20:02.935Z,10.07
2017-12-13T22:22:31.957Z,9.80
2017-12-13T22:25:00.885Z,10.33
2017-12-13T22:27:31.912Z,13.20
2017-12-13T22:29:59.631Z,12.60
2017-12-13T22:32:27.201Z,11.70
2017-12-13T22:34:54.736Z,10.00
2017-12-13T22:37:22.309Z,12.57
2017-12-13T22:39:49.856Z,12.37
2017-12-13T22:42:17.417Z,11.50
2017-12-13T22:44:45.736Z,12.60
2017-12-13T22:47:13.353Z,15.80
2017-12-13T22:49:40.904Z,11.63
2017-12-13T22:52:09.225Z,15.60
2017-12-13T22:54:36.826Z,12.83
2017-12-13T22:57:05.187Z,14.90
2017-12-13T22:59:32.773Z,13.07
2017-12-13T23:02:00.316Z,12.17
2017-12-13T23:04:27.890Z,13.77
2017-12-13T23:06:55.429Z,14.10
2017-12-13T23:09:23.764Z,15.10
2017-12-13T23:11:52.070Z,11.57
2017-12-13T23:14:19.634Z,13.73
2017-12-13T23:16:47.176Z,14.43
2017-12-13T23:19:15.521Z,13.47
2017-12-13T23:21:43.070Z,10.90
2017-12-13T23:24:11.420Z,13.20
2017-12-13T23:26:38.985Z,13.57
2017-12-13T23:29:06.532Z,18.30
2017-12-13T23:31:34.110Z,12.50
2017-12-13T23:34:02.442Z,10.57
2017-12-13T23:36:29.999Z,17.03
2017-12-13T23:38:57.537Z,11.60
2017-12-13T23:41:25.101Z,10.50
2017-12-13T23:43:52.640Z,11.30
2017-12-13T23:46:20.198Z,13.70
2017-12-13T23:48:47.736Z,12.20
2017-12-13T23:51:16.068Z,12.30
2017-12-13T23:53:43.601Z,12.53
2017-12-13T23:56:11.166Z,13.40
2017-12-13T23:58:38.721Z,12.23
